• Join FlightAware (Why Join?)
  • Login
  • US Flag 
08:58AM EDT


 

Airport Tracker/Info


-or-


 

Live Flight TrackerFlight Track Log ✈ FLG3667 ✈ 04-May-2013 ✈ KGRR - KDTW

Flight Track Log - Related Links

Times and Time Zones

All times are in EDT time to prevent confusion due to time zone crossing. See the FLG3667 flight status page for this flight to view local times or setup timezone preferences in your user account.

Time Position Orientation Groundspeed Altitude Reporting Facility
EDT Latitude Longitude Course Direction KTS MPH feet Rate Location/Type
05:32PM 42.9103 -85.3811 71° East 208 239 5,100  Level Chicago Center
05:33PM 42.9375 -85.2900 68° East 249 287 7,700 2,340 Climbing Chicago Center
05:34PM 42.8594 -85.2658 62° Northeast  Level FlightAware Approximate
05:34PM 42.9653 -85.1883 69° East 279 321 10,000  Level Chicago Center
05:35PM 42.8893 -85.1879 62° Northeast  Level FlightAware Approximate
05:35PM 42.9994 -85.0661 69° East 339 390 10,700  Level Chicago Center
05:36PM 42.9195 -85.1102 60° Northeast  Level FlightAware Approximate
05:36PM 43.0364 -84.9328 69° East 372 428 11,000  Level Chicago Center
05:37PM 42.9597 -85.0164 60° Northeast  Level FlightAware Approximate
05:38PM 43.0194 -84.7944 99° East 368 423 11,700  Level Chicago Center
05:39PM 42.9922 -84.6333 103° East 366 421 12,000 120 Climbing Chicago Center
05:40PM 42.9700 -84.5003 103° East 361 415 12,000  Level Chicago Center
05:41PM 42.9442 -84.3700 105° East 357 411 12,000 60 Level Cleveland Center
05:41PM 42.9411 -84.3356 97° East 360 414 12,100 60 Climbing Cleveland Center
05:42PM 42.9200 -84.2153 103° East 362 417 12,100 -60 Level Cleveland Center
05:43PM 42.8983 -84.1061 105° East 362 417 12,000  Descending Cleveland Center
05:43PM 42.8914 -84.0606 102° East 360 414 12,100  Climbing Cleveland Center
05:44PM 42.8750 -83.9747 105° East 362 417 12,000  Descending Cleveland Center
05:44PM 42.8703 -83.9261 98° East 361 415 12,100  Climbing Cleveland Center
05:45PM 42.8539 -83.8403 105° East 362 417 12,000  Descending Cleveland Center
05:45PM 42.8447 -83.7944 105° East 363 418 12,100  Climbing Cleveland Center
05:46PM 42.8092 -83.7219 124° Southeast 347 399 12,000  Descending Cleveland Center
05:46PM 42.7764 -83.7033 157° South 364 419 12,100  Climbing Cleveland Center
05:47PM 42.7169 -83.6636 154° Southeast 336 387 12,000 -120 Descending Cleveland Center
05:47PM 42.6842 -83.6450 157° South 366 421 12,000 -840 Level Cleveland Center
05:48PM 42.6206 -83.6081 157° South 351 404 11,200 -900 Descending Cleveland Center
05:48PM 42.5897 -83.5925 160° South 370 426 11,100 -240 Descending Cleveland Center
05:49PM 42.5303 -83.5558 156° South 362 417 11,000  Descending Cleveland Center
05:49PM 42.4953 -83.5372 159° South 358 412 11,100  Climbing Cleveland Center
05:50PM 42.4419 -83.5039 155° Southeast 362 417 11,000 -240 Descending Cleveland Center
05:50PM 42.4092 -83.4825 154° Southeast 284 327 10,900 -120 Descending Cleveland Center
05:51PM 42.3672 -83.4864 184° South 281 323 10,900 -120 Level Cleveland Center
05:51PM 42.3400 -83.4906 186° South 231 266 10,800 -1,140 Descending Cleveland Center
05:52PM 42.2669 -83.4958 183° South 236 272 9,200 -1,380 Descending Cleveland Center
05:53PM 42.2078 -83.5294 203° Southwest 216 249 8,000 -1,380 Descending Cleveland Center
05:54PM 42.1528 -83.5606 203° Southwest 222 255 6,500 -1,260 Descending Cleveland Center
05:55PM 42.1042 -83.5806 197° South 188 216 5,600 -1,200 Descending Cleveland Center
05:56PM 42.0764 -83.5317 127° Southeast 166 191 4,100 -1,380 Descending Cleveland Center